Time;durP1;ratioP1;P1;durP2;ratioP2;P2;SDS_P1;SDS_P2;PMS_P1;PMS_P2;Temp;Humidity;BMP_temperature;BMP_pressure;BME280_temperature;BME280_humidity;BME280_pressure;Samples;Min_cycle;Max_cycle;Signal;HPM_P1;HPM_P2
2023/12/31 00:02:07;;;;;;;0.10;0.10;;;;;;;11.62;69.81;100357.72;5092524;28;20036;-79
2023/12/31 00:04:34;;;;;;;0.10;0.10;;;;;;;11.60;69.63;100341.00;5092160;28;20034;-77
2023/12/31 00:07:00;;;;;;;0.10;0.10;;;;;;;11.68;68.84;100334.59;5108578;28;20028;-78
2023/12/31 00:09:27;;;;;;;0.10;0.10;;;;;;;11.65;69.20;100331.09;5100150;28;20024;-77
2023/12/31 00:11:53;;;;;;;0.10;0.10;;;;;;;11.69;69.23;100326.56;5100536;28;20035;-77
2023/12/31 00:14:19;;;;;;;0.10;0.10;;;;;;;11.70;68.90;100322.09;5097095;28;20092;-77
2023/12/31 00:16:45;;;;;;;0.10;0.10;;;;;;;11.75;68.72;100312.19;5096930;28;20031;-78
2023/12/31 00:19:11;;;;;;;0.10;0.10;;;;;;;11.80;68.29;100318.22;5104989;28;20077;-79
2023/12/31 00:21:42;;;;;;;0.10;0.10;;;;;;;11.77;68.18;100307.72;5108065;28;20490;-78
2023/12/31 00:24:09;;;;;;;0.10;0.10;;;;;;;11.79;67.98;100309.41;5099132;28;20032;-78
2023/12/31 00:26:35;;;;;;;0.10;0.10;;;;;;;11.79;68.24;100311.22;5099773;28;20043;-77
2023/12/31 00:29:01;;;;;;;0.10;0.10;;;;;;;11.77;67.43;100307.72;5099846;28;20494;-78
2023/12/31 00:31:27;;;;;;;0.10;0.10;;;;;;;11.77;67.29;100299.75;5094435;28;20027;-77
2023/12/31 00:33:56;;;;;;;0.10;0.10;;;;;;;11.78;67.01;100298.84;5094250;28;20084;-78
2023/12/31 00:36:24;;;;;;;0.10;0.10;;;;;;;11.80;67.37;100291.69;5096123;28;20020;-77
2023/12/31 00:38:52;;;;;;;0.10;0.10;;;;;;;11.66;66.98;100292.16;5088227;28;20055;-77
2023/12/31 00:41:19;;;;;;;0.30;0.30;;;;;;;11.65;67.09;100291.28;5099955;28;20123;-78
2023/12/31 00:43:45;;;;;;;2.92;1.38;;;;;;;11.70;66.77;100279.66;5104043;28;20028;-77
2023/12/31 00:46:14;;;;;;;0.15;0.15;;;;;;;11.74;66.63;100275.97;5096936;28;20089;-78
2023/12/31 00:48:40;;;;;;;0.10;0.10;;;;;;;11.73;66.45;100284.88;5108707;28;20057;-78
2023/12/31 00:51:06;;;;;;;0.25;0.25;;;;;;;11.70;65.85;100277.00;5107265;28;20028;-80
2023/12/31 00:53:33;;;;;;;0.10;0.10;;;;;;;11.88;65.95;100272.88;5098313;28;20028;-78
2023/12/31 00:55:59;;;;;;;0.10;0.10;;;;;;;11.83;65.85;100259.75;5109907;28;20119;-79
2023/12/31 00:58:25;;;;;;;0.10;0.10;;;;;;;11.82;65.61;100258.88;5105082;28;20046;-79
2023/12/31 01:00:51;;;;;;;0.10;0.10;;;;;;;11.84;65.12;100250.88;5086945;28;20024;-78
2023/12/31 01:03:18;;;;;;;0.43;0.43;;;;;;;11.88;64.86;100248.97;5080998;28;20127;-78
2023/12/31 01:05:45;;;;;;;0.10;0.10;;;;;;;11.85;65.46;100247.28;5088122;28;20028;-77
2023/12/31 01:08:11;;;;;;;0.10;0.10;;;;;;;11.83;64.78;100243.81;5095636;28;20111;-77
2023/12/31 01:10:37;;;;;;;0.10;0.10;;;;;;;11.80;64.95;100233.28;5100517;28;20145;-77
2023/12/31 01:13:04;;;;;;;0.10;0.10;;;;;;;11.89;64.80;100225.03;5102940;28;20077;-77
2023/12/31 01:15:30;;;;;;;0.10;0.10;;;;;;;11.78;64.18;100219.22;5102095;28;20067;-78
2023/12/31 01:17:56;;;;;;;0.10;0.10;;;;;;;11.87;64.54;100213.56;5102059;28;20062;-77
2023/12/31 01:20:22;;;;;;;0.10;0.10;;;;;;;11.91;63.88;100201.94;5106986;28;20080;-78
2023/12/31 01:22:49;;;;;;;0.10;0.10;;;;;;;11.85;63.71;100202.16;5107274;28;20040;-78
2023/12/31 01:25:15;;;;;;;0.10;0.10;;;;;;;11.75;64.02;100198.97;5107913;28;20024;-78
2023/12/31 01:27:41;;;;;;;0.10;0.10;;;;;;;11.79;64.14;100194.41;5103261;28;20050;-78
2023/12/31 01:30:09;;;;;;;0.10;0.10;;;;;;;11.69;64.09;100177.06;5101313;28;20099;-77
2023/12/31 01:32:35;;;;;;;0.10;0.10;;;;;;;11.63;64.05;100179.03;5099810;28;20024;-78
2023/12/31 01:35:03;;;;;;;0.10;0.10;;;;;;;11.69;64.29;100180.59;5100472;28;20414;-77
2023/12/31 01:37:29;;;;;;;0.10;0.10;;;;;;;11.73;64.46;100182.22;5100989;28;20514;-78
2023/12/31 01:39:56;;;;;;;0.10;0.10;;;;;;;11.71;63.90;100172.59;5103493;28;20175;-77
2023/12/31 01:42:22;;;;;;;0.80;0.43;;;;;;;11.77;63.88;100177.69;5095083;28;20051;-79
2023/12/31 01:44:49;;;;;;;0.10;0.10;;;;;;;11.79;64.02;100170.53;5090253;28;20028;-79
2023/12/31 01:47:17;;;;;;;0.10;0.10;;;;;;;11.86;63.87;100174.69;5099804;28;20053;-79
2023/12/31 01:49:43;;;;;;;0.10;0.10;;;;;;;11.75;63.74;100158.28;5105070;28;20468;-79
2023/12/31 01:52:11;;;;;;;0.20;0.20;;;;;;;11.86;63.81;100148.13;5107473;28;20035;-78
2023/12/31 01:54:37;;;;;;;0.10;0.10;;;;;;;11.81;63.63;100153.63;5103660;28;20415;-78
2023/12/31 01:57:05;;;;;;;0.05;0.05;;;;;;;11.90;63.82;100144.47;5107976;28;20053;-79
2023/12/31 01:59:31;;;;;;;0.10;0.10;;;;;;;11.84;64.04;100141.16;5106334;28;20043;-79
2023/12/31 02:01:57;;;;;;;0.10;0.10;;;;;;;11.82;63.93;100136.78;5101834;28;20035;-79
2023/12/31 02:04:30;;;;;;;0.55;0.55;;;;;;;11.82;63.17;100142.09;5107176;28;20100;-79
2023/12/31 02:06:57;;;;;;;0.63;0.63;;;;;;;11.72;63.38;100134.50;5105327;28;20028;-79
2023/12/31 02:09:23;;;;;;;0.10;0.10;;;;;;;11.76;63.39;100120.19;5106559;28;20024;-79
2023/12/31 02:11:49;;;;;;;0.10;0.10;;;;;;;11.82;63.70;100117.31;5108730;28;20028;-80
2023/12/31 02:14:15;;;;;;;0.17;0.17;;;;;;;11.89;63.46;100104.72;5108392;28;20036;-79
2023/12/31 02:16:41;;;;;;;0.10;0.10;;;;;;;11.86;63.17;100116.28;5107579;28;20044;-80
2023/12/31 02:19:08;;;;;;;0.10;0.10;;;;;;;11.75;63.45;100102.53;5101593;28;20024;-80
2023/12/31 02:21:34;;;;;;;0.10;0.10;;;;;;;11.81;63.49;100102.31;5103241;28;20081;-77
2023/12/31 02:24:01;;;;;;;0.10;0.10;;;;;;;11.80;62.94;100084.66;5090231;28;20035;-78
2023/12/31 02:26:28;;;;;;;1.38;0.85;;;;;;;11.76;63.73;100091.91;5099301;28;20055;-78
2023/12/31 02:28:54;;;;;;;0.10;0.10;;;;;;;11.69;63.42;100070.91;5110720;28;20029;-77
2023/12/31 02:31:20;;;;;;;0.10;0.10;;;;;;;11.72;63.55;100060.22;5111525;28;20047;-77
2023/12/31 02:33:46;;;;;;;0.68;0.68;;;;;;;11.70;63.83;100052.31;5111751;28;20024;-77
2023/12/31 02:36:12;;;;;;;0.20;0.20;;;;;;;11.68;63.34;100045.34;5109715;28;20111;-78
2023/12/31 02:38:39;;;;;;;0.10;0.10;;;;;;;11.67;64.14;100035.63;5106093;28;20023;-78
2023/12/31 02:41:05;;;;;;;3.08;1.45;;;;;;;11.60;63.29;100040.28;5107538;28;20028;-78
2023/12/31 02:43:31;;;;;;;0.10;0.10;;;;;;;11.65;63.11;100025.94;5102110;28;20024;-78
2023/12/31 02:45:57;;;;;;;0.10;0.10;;;;;;;11.60;63.32;100033.22;5107967;28;20073;-78
2023/12/31 02:48:23;;;;;;;0.10;0.10;;;;;;;11.69;63.29;100023.16;5107415;28;20036;-80
2023/12/31 02:50:50;;;;;;;0.20;0.20;;;;;;;11.53;63.30;100018.44;5107339;28;20036;-78
2023/12/31 02:53:16;;;;;;;0.10;0.10;;;;;;;11.64;63.77;100004.78;5106091;28;20284;-79
2023/12/31 02:55:43;;;;;;;0.10;0.10;;;;;;;11.72;63.21;100001.81;5107310;28;20039;-78
2023/12/31 02:58:09;;;;;;;0.10;0.10;;;;;;;11.62;63.43;99996.84;5110632;28;20036;-78
2023/12/31 03:00:35;;;;;;;0.30;0.30;;;;;;;11.68;63.69;99994.91;5108935;28;20024;-78
2023/12/31 03:03:01;;;;;;;0.40;0.40;;;;;;;11.65;62.99;99991.44;5104882;28;20092;-78
2023/12/31 03:05:27;;;;;;;0.10;0.10;;;;;;;11.62;63.22;99986.25;5112320;28;20035;-78
2023/12/31 03:07:54;;;;;;;0.10;0.10;;;;;;;11.61;63.62;99984.53;5107551;28;20043;-78
2023/12/31 03:10:20;;;;;;;0.10;0.10;;;;;;;11.55;63.83;99968.84;5107889;28;20096;-79
2023/12/31 03:12:47;;;;;;;0.20;0.20;;;;;;;11.49;64.02;99975.25;5109936;28;20059;-79
2023/12/31 03:15:13;;;;;;;0.10;0.10;;;;;;;11.50;63.69;99949.56;5108462;28;20067;-78
2023/12/31 03:17:40;;;;;;;0.10;0.10;;;;;;;11.52;63.54;99947.72;5106757;28;20032;-78
2023/12/31 03:20:06;;;;;;;0.10;0.10;;;;;;;11.41;64.06;99949.94;5107686;28;20024;-79
2023/12/31 03:22:33;;;;;;;0.10;0.10;;;;;;;11.37;64.01;99933.28;5107998;28;20034;-79
2023/12/31 03:24:59;;;;;;;0.10;0.10;;;;;;;11.36;63.76;99922.72;5102693;28;20040;-78
2023/12/31 03:27:26;;;;;;;0.10;0.10;;;;;;;11.33;64.03;99927.22;5108161;28;20020;-77
2023/12/31 03:29:52;;;;;;;0.10;0.10;;;;;;;11.22;64.68;99916.16;5109801;28;20050;-78
2023/12/31 03:32:18;;;;;;;0.10;0.10;;;;;;;11.15;64.61;99917.28;5106529;28;20028;-78
2023/12/31 03:34:44;;;;;;;0.13;0.13;;;;;;;11.22;64.50;99904.69;5104851;28;20028;-79
2023/12/31 03:37:10;;;;;;;0.10;0.10;;;;;;;11.10;64.97;99903.34;5106077;28;20043;-79
2023/12/31 03:39:36;;;;;;;0.10;0.10;;;;;;;11.17;64.65;99888.94;5101822;28;20365;-78
2023/12/31 03:42:03;;;;;;;1.10;1.10;;;;;;;11.14;64.18;99874.03;5106650;28;20063;-79
2023/12/31 03:44:29;;;;;;;0.13;0.13;;;;;;;11.20;64.56;99870.25;5099485;28;20032;-78
2023/12/31 03:46:56;;;;;;;0.65;0.65;;;;;;;11.17;64.60;99875.69;5090697;28;20036;-78
2023/12/31 03:49:22;;;;;;;0.10;0.10;;;;;;;11.12;64.63;99864.41;5096529;28;20107;-77
2023/12/31 03:51:48;;;;;;;0.10;0.10;;;;;;;11.16;64.56;99858.03;5095501;28;20098;-78
2023/12/31 03:54:15;;;;;;;0.10;0.10;;;;;;;11.11;64.61;99858.22;5100998;28;20045;-77
2023/12/31 03:56:41;;;;;;;0.20;0.20;;;;;;;10.99;64.44;99851.59;5113244;28;20028;-79
2023/12/31 03:59:07;;;;;;;0.40;0.40;;;;;;;11.05;65.24;99837.25;5100104;28;20036;-79
2023/12/31 04:01:33;;;;;;;0.10;0.10;;;;;;;11.09;64.40;99838.00;5110661;28;20028;-79
2023/12/31 04:04:00;;;;;;;0.10;0.10;;;;;;;11.06;65.03;99827.53;5108526;28;20648;-79
2023/12/31 04:06:26;;;;;;;0.10;0.10;;;;;;;11.06;64.68;99817.78;5099494;28;20046;-78
2023/12/31 04:08:52;;;;;;;3.53;0.65;;;;;;;11.11;65.00;99823.75;5104376;28;20036;-79
2023/12/31 04:11:19;;;;;;;0.10;0.10;;;;;;;11.15;64.77;99821.84;5106444;28;20040;-79
2023/12/31 04:13:45;;;;;;;0.10;0.10;;;;;;;11.15;65.19;99811.25;5103023;28;20487;-79
2023/12/31 04:16:11;;;;;;;0.10;0.10;;;;;;;11.23;64.46;99806.53;5106694;28;20039;-79
2023/12/31 04:18:37;;;;;;;0.20;0.20;;;;;;;11.16;64.69;99797.94;5102924;28;20024;-80
2023/12/31 04:21:04;;;;;;;1.08;0.90;;;;;;;11.23;64.88;99792.41;5096677;28;20037;-77
2023/12/31 04:23:30;;;;;;;0.10;0.10;;;;;;;11.15;64.60;99779.44;5099593;28;20032;-77
2023/12/31 04:25:56;;;;;;;0.20;0.20;;;;;;;11.26;64.68;99761.31;5100719;28;20058;-77
2023/12/31 04:28:22;;;;;;;0.68;0.52;;;;;;;11.30;65.09;99740.84;5107231;28;20050;-77
2023/12/31 04:30:48;;;;;;;0.20;0.20;;;;;;;11.33;64.82;99751.34;5099176;28;20364;-78
2023/12/31 04:33:15;;;;;;;0.10;0.10;;;;;;;11.25;64.64;99751.66;5106296;28;20036;-79
2023/12/31 04:35:41;;;;;;;0.10;0.10;;;;;;;11.17;65.00;99751.09;5097324;28;20023;-79
2023/12/31 04:38:08;;;;;;;0.20;0.20;;;;;;;11.16;65.19;99760.84;5104594;28;20032;-77
2023/12/31 04:40:34;;;;;;;0.10;0.10;;;;;;;11.17;64.87;99746.63;5102355;28;20020;-79
2023/12/31 04:43:00;;;;;;;0.20;0.20;;;;;;;11.20;65.06;99745.63;5092578;28;20036;-79
2023/12/31 04:45:26;;;;;;;0.68;0.68;;;;;;;11.20;64.98;99734.19;5104892;28;20032;-78
2023/12/31 04:47:52;;;;;;;0.10;0.10;;;;;;;11.27;64.77;99731.22;5100887;28;20046;-79
2023/12/31 04:50:18;;;;;;;0.20;0.20;;;;;;;11.15;65.22;99729.94;5108359;28;20024;-77
2023/12/31 04:52:44;;;;;;;0.10;0.10;;;;;;;11.26;64.69;99712.72;5112852;28;20036;-77
2023/12/31 04:55:11;;;;;;;0.10;0.10;;;;;;;11.21;64.64;99709.41;5103663;28;20042;-77
2023/12/31 04:57:37;;;;;;;0.10;0.10;;;;;;;11.31;64.45;99700.13;5104009;28;20055;-78
2023/12/31 05:00:04;;;;;;;0.10;0.10;;;;;;;11.20;64.95;99716.47;5106370;28;20027;-78
2023/12/31 05:02:31;;;;;;;0.10;0.10;;;;;;;11.31;64.60;99701.03;5101442;28;20028;-77
2023/12/31 05:04:57;;;;;;;0.10;0.10;;;;;;;11.23;64.96;99705.75;5093992;28;20044;-78
2023/12/31 05:07:23;;;;;;;0.10;0.10;;;;;;;11.16;64.97;99691.03;5091778;28;20030;-77
2023/12/31 05:09:50;;;;;;;0.10;0.10;;;;;;;11.23;65.46;99678.41;5094693;28;20039;-78
2023/12/31 05:12:16;;;;;;;0.40;0.40;;;;;;;11.27;64.82;99666.72;5094432;28;20051;-78
2023/12/31 05:14:42;;;;;;;0.10;0.10;;;;;;;11.28;64.82;99664.00;5086368;28;20032;-78
2023/12/31 05:17:08;;;;;;;0.20;0.20;;;;;;;11.36;64.45;99662.81;5087788;28;20440;-78
2023/12/31 05:19:34;;;;;;;0.35;0.35;;;;;;;11.24;64.96;99651.81;5095576;28;20027;-77
2023/12/31 05:22:00;;;;;;;0.20;0.20;;;;;;;11.34;64.37;99647.00;5089555;28;20032;-77
2023/12/31 05:24:26;;;;;;;0.10;0.10;;;;;;;11.37;64.65;99651.28;5091227;28;20032;-78
2023/12/31 05:26:53;;;;;;;0.10;0.10;;;;;;;11.38;64.80;99637.13;5101609;28;20024;-78
2023/12/31 05:29:19;;;;;;;0.10;0.10;;;;;;;11.37;64.50;99635.38;5106590;28;20028;-78
2023/12/31 05:31:45;;;;;;;0.13;0.13;;;;;;;11.39;64.06;99626.44;5100379;28;20124;-78
2023/12/31 05:34:11;;;;;;;0.10;0.10;;;;;;;11.47;64.26;99626.94;5091793;28;20048;-77
2023/12/31 05:36:39;;;;;;;0.10;0.10;;;;;;;11.44;63.82;99605.00;5097001;28;20073;-77
2023/12/31 05:39:05;;;;;;;0.20;0.20;;;;;;;11.50;64.31;99610.03;5090474;28;20035;-78
2023/12/31 05:41:31;;;;;;;0.30;0.30;;;;;;;11.54;64.07;99619.59;5096190;28;20426;-78
2023/12/31 05:43:57;;;;;;;1.00;0.93;;;;;;;11.55;63.98;99597.47;5088007;28;20027;-77
2023/12/31 05:46:23;;;;;;;0.10;0.10;;;;;;;11.47;64.23;99596.91;5091425;28;20020;-77
2023/12/31 05:48:50;;;;;;;0.47;0.47;;;;;;;11.44;64.12;99587.31;5092766;28;20111;-78
2023/12/31 05:51:16;;;;;;;0.10;0.10;;;;;;;11.49;64.01;99592.44;5103377;28;20028;-77
2023/12/31 05:53:42;;;;;;;0.10;0.10;;;;;;;11.47;64.18;99588.97;5098861;28;20028;-77
2023/12/31 05:56:09;;;;;;;1.88;0.32;;;;;;;11.46;64.46;99597.84;5099705;28;20069;-77
2023/12/31 05:58:35;;;;;;;0.10;0.10;;;;;;;11.44;64.11;99594.38;5093534;28;20078;-78
2023/12/31 06:01:02;;;;;;;0.17;0.17;;;;;;;11.48;64.15;99590.69;5097555;28;20050;-78
2023/12/31 06:03:29;;;;;;;0.30;0.30;;;;;;;11.49;63.90;99592.44;5111672;28;20043;-78
2023/12/31 06:05:55;;;;;;;0.10;0.10;;;;;;;11.40;64.24;99574.25;5100836;28;20105;-78
2023/12/31 06:08:21;;;;;;;0.10;0.10;;;;;;;11.45;63.90;99577.56;5100628;28;20036;-78
2023/12/31 06:10:47;;;;;;;0.20;0.20;;;;;;;11.37;64.68;99566.44;5112996;28;20071;-78
2023/12/31 06:13:13;;;;;;;0.10;0.10;;;;;;;11.39;64.13;99564.56;5103492;28;20036;-78
2023/12/31 06:15:39;;;;;;;0.20;0.20;;;;;;;11.39;64.13;99567.22;5101217;28;20028;-79
2023/12/31 06:18:06;;;;;;;0.10;0.10;;;;;;;11.43;64.30;99566.16;5096399;28;20032;-78
2023/12/31 06:20:32;;;;;;;0.10;0.10;;;;;;;11.47;64.14;99551.84;5104681;28;20051;-79
2023/12/31 06:22:58;;;;;;;0.10;0.10;;;;;;;11.48;64.24;99548.25;5094828;28;20036;-79
2023/12/31 06:25:24;;;;;;;0.15;0.15;;;;;;;11.47;64.01;99546.53;5091707;28;20036;-79
2023/12/31 06:27:51;;;;;;;0.10;0.10;;;;;;;11.39;64.32;99548.66;5089732;28;20032;-79
2023/12/31 06:30:18;;;;;;;0.10;0.10;;;;;;;11.43;64.56;99550.25;5093415;28;20051;-77
2023/12/31 06:32:44;;;;;;;0.10;0.10;;;;;;;11.43;64.54;99547.59;5103355;28;20027;-77
2023/12/31 06:35:10;;;;;;;0.10;0.10;;;;;;;11.45;63.80;99522.72;5106524;28;20498;-79
2023/12/31 06:37:36;;;;;;;0.10;0.10;;;;;;;11.43;64.63;99529.88;5106376;28;20024;-77
2023/12/31 06:40:04;;;;;;;0.10;0.10;;;;;;;11.50;64.41;99519.84;5105728;28;20023;-77
2023/12/31 06:42:30;;;;;;;0.15;0.15;;;;;;;11.42;64.67;99522.84;5107091;28;20039;-77
2023/12/31 06:44:56;;;;;;;0.10;0.10;;;;;;;11.44;64.42;99515.69;5098555;28;20028;-78
2023/12/31 06:47:22;;;;;;;0.40;0.40;;;;;;;11.40;64.08;99507.94;5096404;28;20522;-79
2023/12/31 06:49:49;;;;;;;0.13;0.13;;;;;;;11.48;64.67;99500.50;5102573;28;20036;-77
2023/12/31 06:52:15;;;;;;;0.10;0.10;;;;;;;11.51;64.42;99495.06;5093864;28;20032;-79
2023/12/31 06:54:41;;;;;;;0.10;0.10;;;;;;;11.49;64.02;99487.16;5106818;28;20043;-77
2023/12/31 06:57:08;;;;;;;0.25;0.25;;;;;;;11.56;63.82;99494.84;5102316;28;20024;-79
2023/12/31 06:59:35;;;;;;;0.10;0.10;;;;;;;11.49;64.19;99476.56;5112218;28;20069;-78
2023/12/31 07:02:01;;;;;;;0.10;0.10;;;;;;;11.64;64.06;99475.00;5103662;28;20036;-77
2023/12/31 07:04:27;;;;;;;0.45;0.45;;;;;;;11.57;63.59;99467.41;5095866;28;20039;-77
2023/12/31 07:06:53;;;;;;;0.22;0.22;;;;;;;11.65;64.04;99479.38;5096054;28;20062;-77
2023/12/31 07:09:20;;;;;;;0.10;0.10;;;;;;;11.65;63.52;99470.53;5098994;28;20064;-79
2023/12/31 07:11:46;;;;;;;1.27;1.27;;;;;;;11.68;63.51;99466.91;5109986;28;20031;-77
2023/12/31 07:14:12;;;;;;;1.45;0.63;;;;;;;11.78;63.77;99474.34;5111673;28;20016;-77
2023/12/31 07:16:38;;;;;;;0.10;0.10;;;;;;;11.78;63.80;99465.53;5107020;28;20046;-78
2023/12/31 07:19:04;;;;;;;0.20;0.20;;;;;;;11.85;64.32;99450.19;5109500;28;20036;-79
2023/12/31 07:21:30;;;;;;;0.17;0.17;;;;;;;11.80;64.99;99461.88;5101032;28;20031;-77
2023/12/31 07:23:58;;;;;;;0.20;0.20;;;;;;;11.71;65.18;99453.47;5093675;28;20101;-77
2023/12/31 07:26:27;;;;;;;0.10;0.10;;;;;;;11.72;65.54;99461.38;5099924;28;20035;-78
2023/12/31 07:28:54;;;;;;;0.00;0.00;;;;;;;11.61;66.27;99451.28;5102219;28;20037;-79
2023/12/31 07:31:21;;;;;;;0.63;0.63;;;;;;;11.58;66.75;99443.44;5103353;28;20092;-79
2023/12/31 07:33:48;;;;;;;0.30;0.30;;;;;;;11.56;66.31;99445.31;5100221;28;20032;-78
2023/12/31 07:36:14;;;;;;;0.10;0.10;;;;;;;11.55;66.71;99448.03;5110630;28;20032;-79
2023/12/31 07:38:42;;;;;;;0.10;0.10;;;;;;;11.45;66.89;99447.59;5103364;28;20029;-78
2023/12/31 07:41:12;;;;;;;0.13;0.13;;;;;;;11.51;67.13;99441.16;5110945;28;20024;-79
2023/12/31 07:43:41;;;;;;;0.10;0.10;;;;;;;11.42;67.72;99432.69;5104039;28;20032;-79
2023/12/31 07:46:08;;;;;;;0.20;0.20;;;;;;;11.43;67.72;99436.22;5104383;28;20070;-78
2023/12/31 07:48:34;;;;;;;0.10;0.10;;;;;;;11.46;67.16;99434.28;5092718;28;20043;-79
2023/12/31 07:51:03;;;;;;;0.57;0.57;;;;;;;11.38;67.83;99423.16;5093738;28;20024;-79
2023/12/31 07:53:31;;;;;;;0.10;0.10;;;;;;;11.45;67.60;99423.72;5099400;28;20028;-78
2023/12/31 07:55:57;;;;;;;0.10;0.10;;;;;;;11.45;67.51;99411.34;5102798;28;20036;-78
2023/12/31 07:58:26;;;;;;;0.10;0.10;;;;;;;11.37;67.90;99415.28;5101964;28;20035;-79
2023/12/31 08:00:54;;;;;;;0.10;0.10;;;;;;;11.45;68.24;99413.13;5088288;28;20491;-78
2023/12/31 08:03:21;;;;;;;0.10;0.10;;;;;;;11.37;68.74;99417.94;5094375;28;20046;-78
2023/12/31 08:05:48;;;;;;;2.53;1.33;;;;;;;11.31;68.80;99419.94;5104773;28;20050;-78
2023/12/31 08:08:15;;;;;;;0.10;0.10;;;;;;;11.40;68.99;99415.13;5104358;28;20028;-77
2023/12/31 08:10:41;;;;;;;0.15;0.15;;;;;;;11.31;69.19;99412.00;5108384;28;20032;-79
2023/12/31 08:13:08;;;;;;;0.10;0.10;;;;;;;11.31;69.39;99403.16;5089055;28;20029;-78
2023/12/31 08:15:34;;;;;;;0.10;0.10;;;;;;;11.29;69.91;99403.22;5092766;28;20035;-77
2023/12/31 08:18:02;;;;;;;0.10;0.10;;;;;;;11.23;70.00;99405.31;5090103;28;20101;-76
2023/12/31 08:20:28;;;;;;;0.10;0.10;;;;;;;11.19;70.33;99396.63;5097683;28;20024;-77
2023/12/31 08:22:54;;;;;;;0.10;0.10;;;;;;;11.14;70.28;99396.84;5100540;28;20036;-77
2023/12/31 08:25:21;;;;;;;0.10;0.10;;;;;;;11.19;70.74;99401.94;5106713;28;20074;-78
2023/12/31 08:27:47;;;;;;;0.10;0.10;;;;;;;11.20;70.57;99395.69;5107724;28;20031;-77
2023/12/31 08:30:13;;;;;;;0.10;0.10;;;;;;;11.15;71.18;99413.59;5095208;28;20040;-78
2023/12/31 08:32:40;;;;;;;0.88;0.88;;;;;;;11.20;71.02;99408.94;5095323;28;20032;-78
2023/12/31 08:35:06;;;;;;;0.10;0.10;;;;;;;11.22;70.66;99430.94;5096357;28;20551;-79
2023/12/31 08:37:32;;;;;;;0.20;0.20;;;;;;;11.18;71.29;99469.16;5101210;28;20032;-77
2023/12/31 08:39:58;;;;;;;0.10;0.10;;;;;;;11.20;70.76;99475.22;5085512;28;20507;-76
2023/12/31 08:42:24;;;;;;;0.10;0.10;;;;;;;10.95;71.06;99465.72;5090152;28;20042;-77
2023/12/31 08:44:51;;;;;;;0.10;0.10;;;;;;;11.02;71.08;99466.31;5096018;28;20028;-77
2023/12/31 08:47:17;;;;;;;0.20;0.20;;;;;;;10.87;71.00;99467.00;5103481;28;20032;-78
2023/12/31 08:49:43;;;;;;;0.10;0.10;;;;;;;10.70;71.22;99451.81;5087180;28;20032;-78
2023/12/31 08:52:10;;;;;;;0.10;0.10;;;;;;;10.57;71.41;99454.97;5087849;28;20069;-78
2023/12/31 08:54:36;;;;;;;0.30;0.30;;;;;;;10.40;71.43;99460.13;5094397;28;20032;-78
2023/12/31 08:57:03;;;;;;;0.20;0.20;;;;;;;10.35;71.23;99460.28;5099698;28;20024;-78
2023/12/31 08:59:29;;;;;;;0.10;0.10;;;;;;;10.33;71.67;99454.16;5093410;28;20031;-78
2023/12/31 09:01:55;;;;;;;0.10;0.10;;;;;;;10.19;71.85;99460.91;5095425;28;20093;-78
2023/12/31 09:04:22;;;;;;;0.13;0.13;;;;;;;10.15;72.32;99463.75;5102065;28;20052;-78
2023/12/31 09:06:49;;;;;;;0.10;0.10;;;;;;;10.17;72.24;99457.47;5102294;28;20042;-79
2023/12/31 09:09:15;;;;;;;0.20;0.20;;;;;;;10.24;72.08;99458.06;5092549;28;20467;-78
2023/12/31 09:11:41;;;;;;;0.10;0.10;;;;;;;10.26;71.63;99458.88;5085784;28;20032;-78
2023/12/31 09:14:08;;;;;;;0.10;0.10;;;;;;;10.03;72.09;99443.91;5092965;28;20032;-79
2023/12/31 09:16:34;;;;;;;0.10;0.10;;;;;;;10.16;71.85;99441.66;5101941;28;20062;-79
2023/12/31 09:19:00;;;;;;;0.20;0.20;;;;;;;10.21;72.14;99463.50;5098375;28;20036;-76
2023/12/31 09:21:26;;;;;;;0.10;0.10;;;;;;;10.27;71.69;99457.06;5100945;28;20027;-79
2023/12/31 09:23:53;;;;;;;0.10;0.10;;;;;;;10.25;71.65;99459.78;5100707;28;20024;-79
2023/12/31 09:26:19;;;;;;;0.10;0.10;;;;;;;10.29;71.50;99444.63;5098423;28;20032;-79
2023/12/31 09:28:47;;;;;;;0.10;0.10;;;;;;;10.36;71.26;99454.94;5090489;28;20469;-77
2023/12/31 09:31:13;;;;;;;0.10;0.10;;;;;;;10.46;70.79;99446.63;5089877;28;20028;-78
2023/12/31 09:33:39;;;;;;;0.10;0.10;;;;;;;10.38;71.12;99446.94;5107173;28;20024;-77
2023/12/31 09:36:08;;;;;;;0.10;0.10;;;;;;;10.37;70.84;99450.53;5098933;28;20036;-78
2023/12/31 09:38:35;;;;;;;0.10;0.10;;;;;;;10.43;70.57;99452.91;5101884;28;20080;-79
2023/12/31 09:41:04;;;;;;;0.10;0.10;;;;;;;10.41;70.42;99449.47;5101604;28;20020;-79
2023/12/31 09:43:33;;;;;;;0.10;0.10;;;;;;;10.55;69.79;99440.06;5093918;28;20031;-78
2023/12/31 09:46:00;;;;;;;0.10;0.10;;;;;;;10.57;69.88;99439.09;5102680;28;20052;-79
2023/12/31 09:48:26;;;;;;;0.10;0.10;;;;;;;10.62;69.63;99449.50;5102486;28;20046;-79
2023/12/31 09:50:52;;;;;;;0.10;0.10;;;;;;;10.55;69.69;99450.69;5096840;28;20060;-79
2023/12/31 09:53:22;;;;;;;0.57;0.57;;;;;;;10.76;69.56;99455.03;5097897;28;20088;-79
2023/12/31 09:55:50;;;;;;;0.20;0.20;;;;;;;10.80;69.57;99447.81;5102367;28;20020;-79
2023/12/31 09:58:18;;;;;;;0.57;0.57;;;;;;;10.88;69.50;99452.78;5085177;28;20027;-77
2023/12/31 10:00:44;;;;;;;0.10;0.10;;;;;;;10.91;68.96;99450.88;5090060;28;20513;-79
2023/12/31 10:03:12;;;;;;;0.10;0.10;;;;;;;10.94;69.17;99448.09;5092247;28;20085;-80
2023/12/31 10:05:41;;;;;;;0.10;0.10;;;;;;;11.02;68.71;99445.09;5084480;28;20055;-79
2023/12/31 10:08:09;;;;;;;0.50;0.50;;;;;;;11.05;68.70;99454.72;5096448;28;20020;-78
2023/12/31 10:10:38;;;;;;;0.10;0.10;;;;;;;11.06;68.53;99451.13;5094884;28;20032;-79
2023/12/31 10:13:04;;;;;;;0.10;0.10;;;;;;;11.15;68.63;99456.00;5102868;28;20518;-81
2023/12/31 10:15:31;;;;;;;0.20;0.20;;;;;;;11.20;68.86;99447.84;5106388;28;20038;-78
2023/12/31 10:17:59;;;;;;;0.10;0.10;;;;;;;11.15;69.11;99440.09;5106233;28;20852;-78
2023/12/31 10:20:25;;;;;;;0.10;0.10;;;;;;;11.03;69.49;99440.66;5105453;28;20020;-79
2023/12/31 10:22:51;;;;;;;0.10;0.10;;;;;;;10.93;69.50;99446.38;5104615;28;20056;-79
2023/12/31 10:25:19;;;;;;;0.10;0.10;;;;;;;11.00;70.19;99431.94;5107182;28;20032;-78
2023/12/31 10:27:47;;;;;;;0.22;0.22;;;;;;;10.95;71.27;99427.75;5107430;28;20074;-79
2023/12/31 10:30:14;;;;;;;0.10;0.10;;;;;;;11.10;70.75;99426.19;5105321;28;20025;-80
2023/12/31 10:32:41;;;;;;;0.30;0.30;;;;;;;11.24;71.19;99418.50;5104992;28;20039;-78
2023/12/31 10:35:08;;;;;;;0.10;0.10;;;;;;;11.19;70.94;99423.16;5096379;28;20056;-79
2023/12/31 10:37:35;;;;;;;0.10;0.10;;;;;;;11.24;70.63;99407.88;5091283;28;20114;-78
2023/12/31 10:42:56;;;;;;;0.10;0.10;;;;;;;11.21;70.63;99401.88;5124758;27;20383;-78
2023/12/31 10:45:22;;;;;;;0.10;0.10;;;;;;;11.15;70.46;99403.88;5120558;28;20036;-77
2023/12/31 10:47:52;;;;;;;0.10;0.10;;;;;;;11.24;70.24;99413.19;5111213;28;20487;-78
2023/12/31 10:50:24;;;;;;;0.10;0.10;;;;;;;11.15;70.33;99409.16;5115660;28;20087;-78
2023/12/31 10:52:55;;;;;;;0.20;0.20;;;;;;;11.12;70.53;99419.06;5100204;28;20036;-78
2023/12/31 10:55:23;;;;;;;1.67;0.95;;;;;;;11.04;70.99;99410.56;5108141;28;20035;-79
2023/12/31 10:57:51;;;;;;;0.10;0.10;;;;;;;11.04;70.95;99437.06;5114424;28;20071;-78
2023/12/31 11:00:19;;;;;;;0.10;0.10;;;;;;;10.65;70.94;99421.09;5117714;28;20045;-79
2023/12/31 11:02:46;;;;;;;0.10;0.10;;;;;;;10.46;70.71;99436.03;5119144;28;20028;-79
2023/12/31 11:05:15;;;;;;;0.10;0.10;;;;;;;10.44;70.40;99441.41;5119289;28;20040;-77
2023/12/31 11:07:42;;;;;;;0.20;0.20;;;;;;;10.31;71.03;99448.94;5111803;28;20020;-78
2023/12/31 11:10:09;;;;;;;0.10;0.10;;;;;;;10.16;71.64;99476.91;5114995;28;20047;-78
2023/12/31 11:12:36;;;;;;;0.10;0.10;;;;;;;9.98;71.83;99481.16;5121428;28;20020;-78
2023/12/31 11:15:16;;;;;;;0.10;0.10;;;;;;;10.05;71.79;99502.94;5115380;28;20050;-78
2023/12/31 11:26:13;;;;;;;0.10;0.10;;;;;;;10.03;72.12;99513.59;5114903;27;20376;-77
2023/12/31 11:28:48;;;;;;;0.30;0.30;;;;;;;10.09;71.92;99516.91;5119282;28;20088;-79
2023/12/31 11:31:14;;;;;;;0.13;0.13;;;;;;;9.95;71.98;99505.06;5115528;28;20085;-78
2023/12/31 11:33:40;;;;;;;0.30;0.30;;;;;;;9.93;71.87;99492.81;5121675;28;20057;-78
2023/12/31 11:36:12;;;;;;;2.13;1.95;;;;;;;10.03;71.40;99503.00;5115885;28;20107;-79
2023/12/31 11:39:00;;;;;;;2.03;1.67;;;;;;;10.25;70.80;99499.50;5102707;28;20059;-81
2023/12/31 11:41:31;;;;;;;0.10;0.10;;;;;;;10.01;70.83;99504.84;5100685;28;20554;-78